createdAt,value
2018-12-24T00:02:09.851Z,91.50
2018-12-24T00:04:40.285Z,91.40
2018-12-24T00:07:10.814Z,91.00
2018-12-24T00:09:41.317Z,91.00
2018-12-24T00:12:11.794Z,91.20
2018-12-24T00:14:42.291Z,91.50
2018-12-24T00:17:12.741Z,91.90
2018-12-24T00:19:43.243Z,91.70
2018-12-24T00:22:14.026Z,91.80
2018-12-24T00:24:44.448Z,91.90
2018-12-24T00:27:14.991Z,92.30
2018-12-24T00:29:45.533Z,92.20
2018-12-24T00:32:15.927Z,92.30
2018-12-24T00:34:46.530Z,92.90
2018-12-24T00:37:17.072Z,93.50
2018-12-24T00:39:47.560Z,93.80
2018-12-24T00:42:17.996Z,94.00
2018-12-24T00:44:48.580Z,94.10
2018-12-24T00:47:19.065Z,94.30
2018-12-24T00:49:49.527Z,94.10
2018-12-24T00:52:20.182Z,94.30
2018-12-24T00:54:50.762Z,94.20
2018-12-24T00:57:21.295Z,94.20
2018-12-24T00:59:51.825Z,94.80
2018-12-24T01:02:22.509Z,95.00
2018-12-24T01:04:53.019Z,95.10
2018-12-24T01:07:24.137Z,95.10
2018-12-24T01:09:54.641Z,95.60
2018-12-24T01:12:25.548Z,95.60
2018-12-24T01:14:55.993Z,95.90
2018-12-24T01:17:26.517Z,96.10
2018-12-24T01:19:56.950Z,96.30
2018-12-24T01:22:27.534Z,96.60
2018-12-24T01:24:58.009Z,96.80
2018-12-24T01:27:28.471Z,97.10
2018-12-24T01:29:58.969Z,97.10
2018-12-24T01:32:29.429Z,97.60
2018-12-24T01:34:59.896Z,98.70
2018-12-24T01:37:30.450Z,98.80
2018-12-24T01:40:00.914Z,98.60
2018-12-24T01:42:33.560Z,98.80
2018-12-24T01:45:03.319Z,98.80
2018-12-24T01:47:33.703Z,99.50
2018-12-24T01:50:04.163Z,99.90
2018-12-24T01:52:34.754Z,99.90
2018-12-24T01:55:05.212Z,99.90
2018-12-24T01:57:35.595Z,99.90
2018-12-24T02:00:06.206Z,99.90
2018-12-24T02:02:36.645Z,99.90
2018-12-24T02:05:07.309Z,99.90
2018-12-24T02:07:37.929Z,99.90
2018-12-24T02:10:08.501Z,99.90
2018-12-24T02:12:42.304Z,99.90
2018-12-24T02:15:10.897Z,99.90
2018-12-24T02:17:41.318Z,99.90
2018-12-24T02:20:11.809Z,99.90
2018-12-24T02:22:42.331Z,99.90
2018-12-24T02:25:12.795Z,99.90
2018-12-24T02:27:43.224Z,99.90
2018-12-24T02:30:13.830Z,99.90
2018-12-24T02:32:44.301Z,99.90
2018-12-24T02:35:14.719Z,99.90
2018-12-24T02:37:45.294Z,99.90
2018-12-24T02:40:15.810Z,99.90
2018-12-24T02:42:52.223Z,99.90
2018-12-24T02:45:18.365Z,99.90
2018-12-24T02:47:48.895Z,99.90
2018-12-24T02:50:19.412Z,99.90
2018-12-24T02:52:49.975Z,99.90
2018-12-24T02:55:20.381Z,99.90
2018-12-24T02:57:50.822Z,99.90
2018-12-24T03:00:21.420Z,99.90
2018-12-24T03:02:51.834Z,99.90
2018-12-24T03:05:22.331Z,99.90
2018-12-24T03:07:53.043Z,99.90
2018-12-24T03:10:23.522Z,99.90
2018-12-24T03:13:02.304Z,99.90
2018-12-24T03:15:27.232Z,99.90
2018-12-24T03:17:57.659Z,99.90
2018-12-24T03:20:28.129Z,99.90
2018-12-24T03:22:58.678Z,99.90
2018-12-24T03:25:29.162Z,99.90
2018-12-24T03:27:59.593Z,99.90
2018-12-24T03:30:30.085Z,99.90
2018-12-24T03:33:00.644Z,99.90
2018-12-24T03:35:31.162Z,99.90
2018-12-24T03:38:01.812Z,99.90
2018-12-24T03:40:32.298Z,99.90
2018-12-24T03:43:12.181Z,99.90
2018-12-24T03:45:34.780Z,99.90
2018-12-24T03:48:05.257Z,99.90
2018-12-24T03:50:35.727Z,99.90
2018-12-24T03:53:06.298Z,99.90
2018-12-24T03:55:36.768Z,99.90
2018-12-24T03:58:07.320Z,99.90
2018-12-24T04:00:37.869Z,99.90
2018-12-24T04:03:08.279Z,99.90
2018-12-24T04:05:38.738Z,99.90
2018-12-24T04:08:09.368Z,99.90
2018-12-24T04:10:40.040Z,99.90
2018-12-24T04:13:10.507Z,99.90
2018-12-24T04:15:41.030Z,99.90
2018-12-24T04:18:11.477Z,99.90
2018-12-24T04:20:41.870Z,99.90
2018-12-24T04:23:12.534Z,99.90
2018-12-24T04:25:42.985Z,99.90
2018-12-24T04:28:13.405Z,99.90
2018-12-24T04:30:43.957Z,99.90
2018-12-24T04:33:14.402Z,99.90
2018-12-24T04:35:44.847Z,99.90
2018-12-24T04:38:15.405Z,99.90
2018-12-24T04:40:45.866Z,99.90
2018-12-24T04:43:16.263Z,99.90
2018-12-24T04:45:46.802Z,99.90
2018-12-24T04:48:17.248Z,99.90
2018-12-24T04:50:47.637Z,99.90
2018-12-24T04:53:18.219Z,99.90
2018-12-24T04:55:48.634Z,99.90
2018-12-24T04:58:19.073Z,99.90
2018-12-24T05:00:49.547Z,99.90
2018-12-24T05:03:20.087Z,99.90
2018-12-24T05:05:50.471Z,99.90
2018-12-24T05:08:21.269Z,99.90
2018-12-24T05:10:51.704Z,99.90
2018-12-24T05:13:22.377Z,99.90
2018-12-24T05:15:52.922Z,99.90
2018-12-24T05:18:23.398Z,99.90
2018-12-24T05:20:53.889Z,99.90
2018-12-24T05:23:24.612Z,99.90
2018-12-24T05:25:55.025Z,99.90
2018-12-24T05:28:26.302Z,99.90
2018-12-24T05:30:56.834Z,99.90
2018-12-24T05:33:27.269Z,99.90
2018-12-24T05:35:57.670Z,99.90
2018-12-24T05:38:28.329Z,99.90
2018-12-24T05:40:58.748Z,99.90
2018-12-24T05:43:29.267Z,99.90
2018-12-24T05:45:59.879Z,99.90
2018-12-24T05:48:30.370Z,99.90
2018-12-24T05:51:00.761Z,99.90
2018-12-24T05:53:31.292Z,99.90
2018-12-24T05:56:01.734Z,99.90
2018-12-24T05:58:32.130Z,99.90
2018-12-24T06:01:02.636Z,99.90
2018-12-24T06:03:33.087Z,99.90
2018-12-24T06:06:03.491Z,99.90
2018-12-24T06:08:34.105Z,99.90
2018-12-24T06:11:04.541Z,99.90
2018-12-24T06:13:34.984Z,99.90
2018-12-24T06:16:05.676Z,99.90
2018-12-24T06:18:36.127Z,99.90
2018-12-24T06:21:06.596Z,99.90
2018-12-24T06:23:37.192Z,99.90
2018-12-24T06:26:07.640Z,99.90
2018-12-24T06:28:38.065Z,99.90
2018-12-24T06:31:08.513Z,99.90
2018-12-24T06:33:38.972Z,99.90
2018-12-24T06:36:09.421Z,99.90
2018-12-24T06:38:40.048Z,99.90
2018-12-24T06:41:10.469Z,99.90
2018-12-24T06:43:40.938Z,99.90
2018-12-24T06:46:11.474Z,99.90
2018-12-24T06:48:41.861Z,99.90
2018-12-24T06:51:12.351Z,99.90
2018-12-24T06:53:42.906Z,99.90
2018-12-24T06:56:13.497Z,99.90
2018-12-24T06:58:44.341Z,99.90
2018-12-24T07:01:14.807Z,99.90
2018-12-24T07:03:45.250Z,99.90
2018-12-24T07:06:15.712Z,99.90
2018-12-24T07:08:46.257Z,99.90
2018-12-24T07:11:16.734Z,99.90
2018-12-24T07:13:47.794Z,99.90
2018-12-24T07:16:18.396Z,99.90
2018-12-24T07:18:49.075Z,99.90
2018-12-24T07:21:19.503Z,99.90
2018-12-24T07:23:50.021Z,99.90
2018-12-24T07:26:20.464Z,99.90
2018-12-24T07:28:58.792Z,99.90
2018-12-24T07:31:22.795Z,99.90
2018-12-24T07:33:54.513Z,99.90
2018-12-24T07:36:24.980Z,99.90
2018-12-24T07:38:55.545Z,99.90
2018-12-24T07:41:26.021Z,99.90
2018-12-24T07:43:56.399Z,99.90
2018-12-24T07:46:26.886Z,99.90
2018-12-24T07:48:57.336Z,99.90
2018-12-24T07:51:27.781Z,99.90
2018-12-24T07:53:58.369Z,99.90
2018-12-24T07:56:28.793Z,99.90
2018-12-24T07:58:59.256Z,99.90
2018-12-24T08:01:29.758Z,99.90
2018-12-24T08:04:00.201Z,99.90
2018-12-24T08:06:30.596Z,99.90
2018-12-24T08:09:01.148Z,99.90
2018-12-24T08:11:31.622Z,99.90
2018-12-24T08:14:02.014Z,99.90
2018-12-24T08:16:32.506Z,99.90
2018-12-24T08:19:02.962Z,99.90
2018-12-24T08:21:36.109Z,99.90
2018-12-24T08:24:06.677Z,99.90
2018-12-24T08:26:37.131Z,99.90
2018-12-24T08:29:07.568Z,99.90
2018-12-24T08:31:38.111Z,99.90
2018-12-24T08:34:08.547Z,99.90
2018-12-24T08:36:38.944Z,99.90
2018-12-24T08:39:09.532Z,99.90
2018-12-24T08:41:40.013Z,99.90
2018-12-24T08:44:10.430Z,99.90
2018-12-24T08:46:40.945Z,99.90
2018-12-24T08:49:11.409Z,99.90
2018-12-24T08:51:41.798Z,99.90
2018-12-24T08:54:12.412Z,99.90
2018-12-24T08:56:42.810Z,99.90
2018-12-24T08:59:13.244Z,99.90
2018-12-24T09:01:43.716Z,99.90
2018-12-24T09:04:14.209Z,99.90
2018-12-24T09:06:44.651Z,99.90
2018-12-24T09:09:15.203Z,99.90
2018-12-24T09:11:45.655Z,99.90
2018-12-24T09:14:16.117Z,99.90
2018-12-24T09:16:46.568Z,99.90
2018-12-24T09:19:17.049Z,99.90
2018-12-24T09:21:47.440Z,99.90
2018-12-24T09:24:18.453Z,99.90
2018-12-24T09:26:48.913Z,99.90
2018-12-24T09:29:19.361Z,99.90
2018-12-24T09:31:49.906Z,99.90
2018-12-24T09:34:20.392Z,99.90
2018-12-24T09:36:50.892Z,99.90
2018-12-24T09:39:21.534Z,99.90
2018-12-24T09:41:52.992Z,99.90
2018-12-24T09:44:23.453Z,99.90
2018-12-24T09:46:53.932Z,99.90
2018-12-24T09:49:24.347Z,99.90
2018-12-24T09:51:54.812Z,99.90
2018-12-24T09:54:25.377Z,99.90
2018-12-24T09:56:55.824Z,99.90
2018-12-24T09:59:26.289Z,99.90
2018-12-24T10:01:56.779Z,99.90
2018-12-24T10:04:28.918Z,99.90
2018-12-24T10:07:00.683Z,99.90
2018-12-24T10:09:31.309Z,99.90
2018-12-24T10:12:01.811Z,99.90
2018-12-24T10:14:32.222Z,99.90
2018-12-24T10:17:02.755Z,99.90
2018-12-24T10:19:33.216Z,99.90
2018-12-24T10:22:03.707Z,99.90
2018-12-24T10:24:34.280Z,99.90
2018-12-24T10:27:05.281Z,99.90
2018-12-24T10:29:35.770Z,99.90
2018-12-24T10:32:06.282Z,99.90
2018-12-24T10:34:36.735Z,99.90
2018-12-24T10:37:07.207Z,99.90
2018-12-24T10:39:37.769Z,99.90
2018-12-24T10:42:08.206Z,99.90
2018-12-24T10:44:38.605Z,99.90
2018-12-24T10:47:09.152Z,99.90
2018-12-24T10:49:39.608Z,99.90
2018-12-24T10:52:10.070Z,99.90
2018-12-24T10:54:40.639Z,99.90
2018-12-24T10:57:11.085Z,99.90
2018-12-24T10:59:41.523Z,99.90
2018-12-24T11:02:12.089Z,99.90
2018-12-24T11:04:42.476Z,99.90
2018-12-24T11:07:12.955Z,99.90
2018-12-24T11:09:43.534Z,99.90
2018-12-24T11:12:14.069Z,99.90
2018-12-24T11:14:44.458Z,99.90
2018-12-24T11:17:15.029Z,99.90
2018-12-24T11:19:45.449Z,99.90
2018-12-24T11:22:15.868Z,99.90
2018-12-24T11:24:46.478Z,99.90
2018-12-24T11:27:16.949Z,99.90
2018-12-24T11:29:47.794Z,99.90
2018-12-24T11:32:18.325Z,99.90
2018-12-24T11:34:48.759Z,99.90
2018-12-24T11:37:19.173Z,99.90
2018-12-24T11:39:49.750Z,99.90
2018-12-24T11:42:20.158Z,99.90
2018-12-24T11:44:50.630Z,99.90
2018-12-24T11:47:21.155Z,99.90
2018-12-24T11:49:51.618Z,99.90
2018-12-24T11:52:22.057Z,99.90
2018-12-24T11:54:52.649Z,99.90
2018-12-24T11:57:23.085Z,99.90
2018-12-24T11:59:53.525Z,99.90
2018-12-24T12:02:24.057Z,99.90
2018-12-24T12:04:54.493Z,99.90
2018-12-24T12:07:24.936Z,99.90
2018-12-24T12:09:55.502Z,99.90
2018-12-24T12:12:25.972Z,99.90
2018-12-24T12:14:56.368Z,99.90
2018-12-24T12:17:26.900Z,99.90
2018-12-24T12:19:57.376Z,99.90
2018-12-24T12:22:27.822Z,99.90
2018-12-24T12:24:58.414Z,99.90
2018-12-24T12:27:28.811Z,99.90
2018-12-24T12:29:59.250Z,99.90
2018-12-24T12:32:30.312Z,99.90
2018-12-24T12:35:00.838Z,99.90
2018-12-24T12:37:32.588Z,99.90
2018-12-24T12:40:03.164Z,99.90
2018-12-24T12:42:33.554Z,99.90
2018-12-24T12:45:04.007Z,99.90
2018-12-24T12:47:34.519Z,99.90
2018-12-24T12:50:05.206Z,99.90
2018-12-24T12:52:35.743Z,99.90
2018-12-24T12:55:07.161Z,99.90
2018-12-24T12:57:37.569Z,99.90
2018-12-24T13:00:08.028Z,99.90
2018-12-24T13:02:38.566Z,99.90
2018-12-24T13:05:08.979Z,99.90
2018-12-24T13:07:39.384Z,99.90
2018-12-24T13:10:10.562Z,99.90
2018-12-24T13:12:41.294Z,99.90
2018-12-24T13:15:12.240Z,99.90
2018-12-24T13:19:56.209Z,99.90
2018-12-24T13:22:26.613Z,99.90
2018-12-24T13:24:56.967Z,99.90
2018-12-24T13:27:27.488Z,99.90
2018-12-24T13:29:57.773Z,99.90
2018-12-24T13:32:28.201Z,99.90
2018-12-24T13:34:59.186Z,99.90
2018-12-24T13:37:29.503Z,99.90
2018-12-24T13:39:59.838Z,99.90
2018-12-24T13:42:30.458Z,99.90
2018-12-24T13:45:00.889Z,99.90
2018-12-24T13:47:31.533Z,99.90
2018-12-24T13:50:04.092Z,99.90
2018-12-24T13:52:34.471Z,99.90
2018-12-24T13:55:04.872Z,99.90
2018-12-24T13:57:35.259Z,99.90
2018-12-24T14:00:05.729Z,99.90
2018-12-24T14:02:36.159Z,99.90
2018-12-24T14:05:06.641Z,99.90
2018-12-24T14:07:36.931Z,99.90
2018-12-24T14:10:08.471Z,99.90
2018-12-24T14:12:38.933Z,99.90
2018-12-24T14:15:09.258Z,99.90
2018-12-24T14:17:39.724Z,99.90
2018-12-24T14:20:10.065Z,99.90
2018-12-24T14:22:40.386Z,99.90
2018-12-24T14:25:10.804Z,99.90
2018-12-24T14:27:41.141Z,99.90
2018-12-24T14:30:12.263Z,99.90
2018-12-24T14:32:42.724Z,99.90
2018-12-24T14:35:14.510Z,99.90
2018-12-24T14:37:45.416Z,99.90
2018-12-24T14:40:15.875Z,99.90
2018-12-24T14:42:46.198Z,99.90
2018-12-24T14:45:16.567Z,99.90
2018-12-24T14:47:46.894Z,99.90
2018-12-24T14:50:17.270Z,99.90
2018-12-24T14:52:47.715Z,99.90
2018-12-24T14:55:18.025Z,99.90
2018-12-24T14:57:48.371Z,99.90
2018-12-24T15:00:18.836Z,99.90
2018-12-24T15:02:49.245Z,99.90
2018-12-24T15:05:19.661Z,99.90
2018-12-24T15:07:50.134Z,99.90
2018-12-24T15:10:20.467Z,99.90
2018-12-24T15:12:52.120Z,99.90
2018-12-24T15:15:22.556Z,99.90
2018-12-24T15:17:52.922Z,99.90
2018-12-24T15:20:23.362Z,99.90
2018-12-24T15:22:53.720Z,99.90
2018-12-24T15:25:24.078Z,99.90
2018-12-24T15:27:54.491Z,99.90
2018-12-24T15:30:24.932Z,99.90
2018-12-24T15:32:55.255Z,99.90
2018-12-24T15:35:25.675Z,99.90
2018-12-24T15:37:55.954Z,99.90
2018-12-24T15:40:26.698Z,99.90
2018-12-24T15:42:57.113Z,99.90
2018-12-24T15:45:27.450Z,99.90
2018-12-24T15:47:57.743Z,99.90
2018-12-24T15:50:28.156Z,99.90
2018-12-24T15:52:58.468Z,99.90
2018-12-24T15:55:28.828Z,99.90
2018-12-24T15:57:59.256Z,99.90
2018-12-24T16:00:29.639Z,99.90
2018-12-24T16:03:00.010Z,99.90
2018-12-24T16:05:30.441Z,99.90
2018-12-24T16:08:00.739Z,99.10
2018-12-24T16:10:31.103Z,98.10
2018-12-24T16:13:01.661Z,96.90
2018-12-24T16:15:32.020Z,96.50
2018-12-24T16:18:02.318Z,95.90
2018-12-24T16:20:32.729Z,96.50
2018-12-24T16:23:03.015Z,95.90
2018-12-24T16:25:33.441Z,95.50
2018-12-24T16:28:03.950Z,94.50
2018-12-24T16:30:34.291Z,92.70
2018-12-24T16:33:23.738Z,92.10
2018-12-24T16:35:53.994Z,91.40
2018-12-24T16:38:24.358Z,90.10
2018-12-24T16:40:55.725Z,87.90
2018-12-24T16:43:26.016Z,88.00
2018-12-24T16:45:56.382Z,86.30
2018-12-24T16:48:26.849Z,86.80
2018-12-24T16:50:57.184Z,88.80
2018-12-24T16:53:27.505Z,88.50
2018-12-24T16:55:57.909Z,87.00
2018-12-24T16:58:28.211Z,86.40
2018-12-24T17:00:58.542Z,84.40
2018-12-24T17:03:29.030Z,83.10
2018-12-24T17:05:59.339Z,82.30
2018-12-24T17:08:29.774Z,81.10
2018-12-24T17:11:00.159Z,80.40
2018-12-24T17:13:30.550Z,78.80
2018-12-24T17:16:00.889Z,77.30
2018-12-24T17:18:31.365Z,76.00
2018-12-24T17:21:01.637Z,74.50
2018-12-24T17:23:31.983Z,73.80
2018-12-24T17:26:02.323Z,73.40
2018-12-24T17:28:32.681Z,72.80
2018-12-24T17:31:03.034Z,71.30
2018-12-24T17:33:33.544Z,71.60
2018-12-24T17:36:05.142Z,71.80
2018-12-24T17:38:36.621Z,72.30
2018-12-24T17:41:06.899Z,70.70
2018-12-24T17:43:37.524Z,69.40
2018-12-24T17:46:07.917Z,70.00
2018-12-24T17:48:38.248Z,69.50
2018-12-24T17:51:08.588Z,68.40
2018-12-24T17:53:39.075Z,68.20
2018-12-24T17:56:09.407Z,67.70
2018-12-24T17:58:39.672Z,69.80
2018-12-24T18:01:11.427Z,71.10
2018-12-24T18:03:41.769Z,71.70
2018-12-24T18:06:12.067Z,71.80
2018-12-24T18:08:42.521Z,72.40
2018-12-24T18:11:12.812Z,72.60
2018-12-24T18:13:43.108Z,71.60
2018-12-24T18:16:13.550Z,73.90
2018-12-24T18:18:43.824Z,73.90
2018-12-24T18:21:14.165Z,73.80
2018-12-24T18:23:44.565Z,74.40
2018-12-24T18:26:14.858Z,74.00
2018-12-24T18:28:45.173Z,73.60
2018-12-24T18:31:19.919Z,73.50
2018-12-24T18:33:47.298Z,74.30
2018-12-24T18:36:17.657Z,73.70
2018-12-24T18:38:48.117Z,74.60
2018-12-24T18:41:18.487Z,74.30
2018-12-24T18:43:49.063Z,74.10
2018-12-24T18:46:19.455Z,73.00
2018-12-24T18:48:49.743Z,72.60
2018-12-24T18:51:20.092Z,74.20
2018-12-24T18:53:50.548Z,73.60
2018-12-24T18:56:21.427Z,72.10
2018-12-24T18:58:51.761Z,72.30
2018-12-24T19:01:22.239Z,73.00
2018-12-24T19:03:52.552Z,72.20
2018-12-24T19:06:22.891Z,73.50
2018-12-24T19:08:53.383Z,74.90
2018-12-24T19:11:23.757Z,74.40
2018-12-24T19:13:54.369Z,73.20
2018-12-24T19:16:25.265Z,74.10
2018-12-24T19:18:55.658Z,74.20
2018-12-24T19:21:26.076Z,72.90
2018-12-24T19:23:56.487Z,73.20
2018-12-24T19:26:26.779Z,74.00
2018-12-24T19:28:57.125Z,72.90
2018-12-24T19:31:27.540Z,73.40
2018-12-24T19:33:57.829Z,74.80
2018-12-24T19:36:28.256Z,74.40
2018-12-24T19:38:58.738Z,73.10
2018-12-24T19:41:29.138Z,73.50
2018-12-24T19:43:59.907Z,74.20
2018-12-24T19:46:30.319Z,74.00
2018-12-24T19:49:00.642Z,73.50
2018-12-24T19:51:30.983Z,72.50
2018-12-24T19:54:01.390Z,71.10
2018-12-24T19:56:31.695Z,70.20
2018-12-24T19:59:02.049Z,70.10
2018-12-24T20:01:32.461Z,71.40
2018-12-24T20:04:02.780Z,71.40
2018-12-24T20:06:33.152Z,71.60
2018-12-24T20:09:04.731Z,72.00
2018-12-24T20:11:35.086Z,73.20
2018-12-24T20:14:05.383Z,72.80
2018-12-24T20:16:35.788Z,72.90
2018-12-24T20:19:06.138Z,72.10
2018-12-24T20:21:36.532Z,73.40
2018-12-24T20:24:07.339Z,73.80
2018-12-24T20:26:37.685Z,74.90
2018-12-24T20:29:08.019Z,74.60
2018-12-24T20:31:38.403Z,74.80
2018-12-24T20:34:08.734Z,73.20
2018-12-24T20:36:39.025Z,72.60
2018-12-24T20:39:10.833Z,72.70
2018-12-24T20:41:41.143Z,74.70
2018-12-24T20:44:12.099Z,73.70
2018-12-24T20:46:42.525Z,73.40
2018-12-24T20:49:12.848Z,73.00
2018-12-24T20:51:43.116Z,72.70
2018-12-24T20:54:13.608Z,73.10
2018-12-24T20:56:43.897Z,73.50
2018-12-24T20:59:14.240Z,74.40
2018-12-24T21:01:44.625Z,76.10
2018-12-24T21:04:14.988Z,75.80
2018-12-24T21:06:45.332Z,74.70
2018-12-24T21:09:15.835Z,74.70
2018-12-24T21:11:46.181Z,74.90
2018-12-24T21:14:16.499Z,74.00
2018-12-24T21:16:46.859Z,73.20
2018-12-24T21:19:17.230Z,73.00
2018-12-24T21:21:47.579Z,73.50
2018-12-24T21:24:18.028Z,74.40
2018-12-24T21:26:48.320Z,74.80
2018-12-24T21:29:18.686Z,74.30
2018-12-24T21:31:49.091Z,76.30
2018-12-24T21:34:19.413Z,76.80
2018-12-24T21:36:49.762Z,76.10
2018-12-24T21:39:20.279Z,77.40
2018-12-24T21:41:50.620Z,77.10
2018-12-24T21:44:20.986Z,76.70
2018-12-24T21:46:51.854Z,77.40
2018-12-24T21:49:22.122Z,77.60
2018-12-24T21:51:52.406Z,79.00
2018-12-24T21:54:22.873Z,78.90
2018-12-24T21:56:53.167Z,79.20
2018-12-24T21:59:23.504Z,80.10
2018-12-24T22:01:53.888Z,79.80
2018-12-24T22:04:24.184Z,79.70
2018-12-24T22:06:54.520Z,80.60
2018-12-24T22:09:25.011Z,82.40
2018-12-24T22:11:55.331Z,83.50
2018-12-24T22:14:25.703Z,85.00
2018-12-24T22:16:56.045Z,85.60
2018-12-24T22:19:26.381Z,85.70
2018-12-24T22:21:56.732Z,86.10
2018-12-24T22:24:27.195Z,85.80
2018-12-24T22:26:57.530Z,85.70
2018-12-24T22:29:27.834Z,85.70
2018-12-24T22:31:59.459Z,86.60
2018-12-24T22:34:29.810Z,86.70
2018-12-24T22:37:00.095Z,87.10
2018-12-24T22:39:30.611Z,88.20
2018-12-24T22:42:00.943Z,87.50
2018-12-24T22:44:31.230Z,88.60
2018-12-24T22:47:04.207Z,89.40
2018-12-24T22:49:34.034Z,89.50
2018-12-24T22:52:04.498Z,89.40
2018-12-24T22:54:35.325Z,89.00
2018-12-24T22:57:05.618Z,89.20
2018-12-24T22:59:36.234Z,89.70
2018-12-24T23:02:06.529Z,89.40
2018-12-24T23:04:37.929Z,89.80
2018-12-24T23:07:08.373Z,89.70
2018-12-24T23:09:38.640Z,90.10
2018-12-24T23:12:08.996Z,90.40
2018-12-24T23:14:39.560Z,90.70
2018-12-24T23:17:09.839Z,90.70
2018-12-24T23:19:40.213Z,90.90
2018-12-24T23:22:11.168Z,91.10
2018-12-24T23:24:41.661Z,91.50
2018-12-24T23:27:11.973Z,91.80
2018-12-24T23:29:42.428Z,91.90
2018-12-24T23:32:12.788Z,92.00
2018-12-24T23:34:43.069Z,92.10
2018-12-24T23:37:13.486Z,92.80
2018-12-24T23:39:43.828Z,93.10
2018-12-24T23:42:14.168Z,92.90
2018-12-24T23:44:44.619Z,92.90
2018-12-24T23:47:15.202Z,93.10
2018-12-24T23:49:45.556Z,93.20
2018-12-24T23:52:16.180Z,93.50
2018-12-24T23:54:46.544Z,93.70
2018-12-24T23:57:17.946Z,94.00
2018-12-24T23:59:48.258Z,94.10
